Главная страница
METAR-TAF:

METAR-TAF

Аэропорты :

Cape May County Airport

Вайлдвуд, Нью-Джерси, США

широта: 39-01N, долгота: 074-55W, высота над уровнем моря: 7 м

Текущие метеонаблюдения

Эта сводка был подготовлена 9 минут назад, в 17:56 UTC
Ветер 8 Узел от южный
Температура 2°C
Влажность 55%
Давление 1028 hPa
Видимость: 16.1 км
Рассеянная облачность на высоте 9500 фута
Сплошная облачность на высоте 11000 фута

METAR: KWWD 181756Z AUTO 18008KT 10SM BKN095 OVC110 02/M06 A3037 RMK AO2 SLP286 60000 T00221056 10022 21056 58063 FZRANO

Время: 13:05 (18:05 UTC)


TAF: отсутствует

Метеонаблюдения и прогнозы для более 4000 аэропортов (сводки METAR и TAF).

Имеющиеся станции представлены на карте желтыми и красными точками.

Чтобы увидеть название станции, наведите на нее мышь.

Затем щелкните, чтобы увидеть метеонаблюдения и метеопрогнозы.

Управление картой: чтобы увеличить масштаб, щелкните зеленые кнопки с черным крестиком; чтобы уменьшить масштаб, щелкните зеленую кнопку с тире; для просмотра соседних карт щелкайте зеленые стрелки.


METAR-TAF: